createdAt,value
2022-08-03T00:01:52.379Z,101397.44
2022-08-03T00:04:18.988Z,101399.41
2022-08-03T00:06:45.557Z,101400.47
2022-08-03T00:09:12.307Z,101395.91
2022-08-03T00:11:38.956Z,101395.63
2022-08-03T00:14:06.139Z,101398.25
2022-08-03T00:16:32.723Z,101393.19
2022-08-03T00:19:00.724Z,101396.72
2022-08-03T00:21:28.061Z,101396.53
2022-08-03T00:23:54.631Z,101392.91
2022-08-03T00:26:21.928Z,101399.31
2022-08-03T00:28:49.378Z,101387.81
2022-08-03T00:31:16.005Z,101397.53
2022-08-03T00:33:59.150Z,101385.88
2022-08-03T00:36:26.659Z,101391.25
2022-08-03T00:38:53.230Z,101379.88
2022-08-03T00:41:19.795Z,101375.25
2022-08-03T00:43:47.507Z,101376.06
2022-08-03T00:46:17.717Z,101388.09
2022-08-03T00:48:47.177Z,101379.53
2022-08-03T00:51:13.814Z,101385.06
2022-08-03T00:53:40.455Z,101379.03
2022-08-03T00:56:07.046Z,101376.22
2022-08-03T00:58:33.607Z,101383.81
2022-08-03T01:01:00.335Z,101381.63
2022-08-03T01:03:26.970Z,101370.94
2022-08-03T01:06:02.829Z,101374.84
2022-08-03T01:08:46.632Z,101369.56
2022-08-03T01:11:26.950Z,101357.75
2022-08-03T01:14:27.872Z,101368.66
2022-08-03T01:17:00.311Z,101365.91
2022-08-03T01:19:48.261Z,101358.81
2022-08-03T01:22:17.756Z,101354.09
2022-08-03T01:24:56.364Z,101356.97
2022-08-03T01:27:31.443Z,101357.06
2022-08-03T01:30:04.716Z,101364.22
2022-08-03T01:32:54.592Z,101356.97
2022-08-03T01:35:38.565Z,101358.84
2022-08-03T01:38:20.519Z,101359.19
2022-08-03T01:40:47.893Z,101361.91
2022-08-03T01:43:55.117Z,101354.47
2022-08-03T01:46:04.303Z,101356.25
2022-08-03T01:48:32.221Z,101350.00
2022-08-03T01:50:59.657Z,101342.59
2022-08-03T01:53:26.641Z,101340.72
2022-08-03T01:55:54.576Z,101343.91
2022-08-03T01:58:22.331Z,101340.94
2022-08-03T02:00:49.750Z,101332.84
2022-08-03T02:03:16.729Z,101331.44
2022-08-03T02:05:45.465Z,101339.84
2022-08-03T02:08:13.679Z,101335.53
2022-08-03T02:10:42.430Z,101333.44
2022-08-03T02:13:09.716Z,101338.34
2022-08-03T02:15:37.721Z,101333.69
2022-08-03T02:18:06.627Z,101333.06
2022-08-03T02:20:36.341Z,101342.03
2022-08-03T02:23:02.957Z,101325.88
2022-08-03T02:25:30.496Z,101324.16
2022-08-03T02:28:02.084Z,101330.44
2022-08-03T02:30:39.380Z,101330.44
2022-08-03T02:33:08.543Z,101325.72
2022-08-03T02:35:36.122Z,101331.16
2022-08-03T02:38:04.749Z,101325.88
2022-08-03T02:40:32.311Z,101340.41
2022-08-03T02:43:08.539Z,101317.84
2022-08-03T02:45:37.032Z,101317.75
2022-08-03T02:48:05.269Z,101314.44
2022-08-03T02:50:33.637Z,101310.88
2022-08-03T02:53:01.736Z,101305.28
2022-08-03T02:55:28.751Z,101307.25
2022-08-03T02:57:57.516Z,101301.06
2022-08-03T03:00:28.720Z,101299.88
2022-08-03T03:02:58.350Z,101303.38
2022-08-03T03:05:55.589Z,101306.38
2022-08-03T03:08:18.989Z,101306.31
2022-08-03T03:10:47.837Z,101311.00
2022-08-03T03:13:15.515Z,101307.03
2022-08-03T03:15:43.649Z,101301.75
2022-08-03T03:18:10.852Z,101305.38
2022-08-03T03:20:38.706Z,101301.63
2022-08-03T03:23:05.715Z,101305.28
2022-08-03T03:25:33.326Z,101302.75
2022-08-03T03:28:00.843Z,101307.25
2022-08-03T03:30:28.094Z,101312.88
2022-08-03T03:32:54.755Z,101311.88
2022-08-03T03:35:21.528Z,101310.00
2022-08-03T03:37:48.116Z,101314.72
2022-08-03T03:40:14.875Z,101310.09
2022-08-03T03:42:41.559Z,101313.81
2022-08-03T03:45:08.892Z,101320.16
2022-08-03T03:47:35.711Z,101312.66
2022-08-03T03:50:04.069Z,101311.88
2022-08-03T03:52:31.729Z,101311.31
2022-08-03T03:55:01.009Z,101315.63
2022-08-03T03:57:28.400Z,101319.13
2022-08-03T03:59:55.034Z,101312.09
2022-08-03T04:02:21.794Z,101321.25
2022-08-03T04:05:06.912Z,101310.44
2022-08-03T04:08:15.175Z,101314.75
2022-08-03T04:10:58.704Z,101309.66
2022-08-03T04:13:25.456Z,101315.78
2022-08-03T04:15:52.513Z,101313.41
2022-08-03T04:18:19.696Z,101310.09
2022-08-03T04:20:47.892Z,101317.16
2022-08-03T04:23:16.696Z,101307.28
2022-08-03T04:25:44.054Z,101313.22
2022-08-03T04:28:29.435Z,101313.53
2022-08-03T04:30:58.331Z,101309.88
2022-08-03T04:33:29.243Z,101320.91
2022-08-03T04:36:02.582Z,101313.53
2022-08-03T04:38:32.242Z,101330.69
2022-08-03T04:40:59.573Z,101331.53
2022-08-03T04:43:26.931Z,101332.53
2022-08-03T04:45:54.475Z,101332.53
2022-08-03T04:48:21.245Z,101334.44
2022-08-03T04:50:48.038Z,101324.41
2022-08-03T04:53:14.613Z,101335.25
2022-08-03T04:55:41.208Z,101346.06
2022-08-03T04:58:07.872Z,101341.50
2022-08-03T05:00:35.567Z,101341.56
2022-08-03T05:03:02.122Z,101346.06
2022-08-03T05:05:34.938Z,101343.47
2022-08-03T05:08:15.297Z,101338.78
2022-08-03T05:10:41.871Z,101335.25
2022-08-03T05:13:12.082Z,101333.38
2022-08-03T05:15:42.901Z,101338.00
2022-08-03T05:18:13.902Z,101335.25
2022-08-03T05:20:41.084Z,101335.31
2022-08-03T05:23:07.796Z,101342.41
2022-08-03T05:25:34.445Z,101342.56
2022-08-03T05:28:01.407Z,101334.44
2022-08-03T05:30:33.475Z,101339.63
2022-08-03T05:33:02.250Z,101341.41
2022-08-03T05:36:02.362Z,101340.66
2022-08-03T05:38:24.301Z,101340.56
2022-08-03T05:40:57.579Z,101341.41
2022-08-03T05:43:41.725Z,101337.66
2022-08-03T05:46:12.996Z,101344.81
2022-08-03T05:48:40.067Z,101343.97
2022-08-03T05:51:07.834Z,101347.41
2022-08-03T05:53:34.745Z,101351.16
2022-08-03T05:56:13.067Z,101350.19
2022-08-03T05:58:43.468Z,101348.47
2022-08-03T06:01:10.164Z,101356.47
2022-08-03T06:03:36.761Z,101351.16
2022-08-03T06:06:03.432Z,101344.63
2022-08-03T06:08:30.058Z,101342.00
2022-08-03T06:10:56.616Z,101345.69
2022-08-03T06:13:23.256Z,101344.63
2022-08-03T06:15:49.866Z,101338.16
2022-08-03T06:18:16.448Z,101338.16
2022-08-03T06:20:43.072Z,101334.63
2022-08-03T06:23:16.154Z,101341.69
2022-08-03T06:25:45.060Z,101344.09
2022-08-03T06:28:35.192Z,101337.84
2022-08-03T06:31:00.997Z,101343.25
2022-08-03T06:34:30.588Z,101344.13
2022-08-03T06:36:14.502Z,101341.47
2022-08-03T06:38:41.072Z,101353.97
2022-08-03T06:41:07.669Z,101355.84
2022-08-03T06:43:37.996Z,101346.78
2022-08-03T06:46:05.497Z,101357.63
2022-08-03T06:48:32.334Z,101351.31
2022-08-03T06:50:59.269Z,101346.66
2022-08-03T06:53:25.876Z,101349.31
2022-08-03T06:55:54.900Z,101351.22
2022-08-03T06:58:22.085Z,101353.78
2022-08-03T07:00:48.685Z,101350.31
2022-08-03T07:03:15.520Z,101351.22
2022-08-03T07:05:43.033Z,101352.84
2022-08-03T07:08:10.147Z,101357.34
2022-08-03T07:10:37.159Z,101356.47
2022-08-03T07:13:04.243Z,101358.06
2022-08-03T07:15:38.410Z,101356.09
2022-08-03T07:18:17.719Z,101355.97
2022-08-03T07:20:55.437Z,101358.84
2022-08-03T07:23:21.999Z,101351.47
2022-08-03T07:25:48.570Z,101358.59
2022-08-03T07:28:15.220Z,101353.19
2022-08-03T07:30:41.812Z,101354.03
2022-08-03T07:33:08.430Z,101365.78
2022-08-03T07:35:35.090Z,101368.44
2022-08-03T07:38:01.772Z,101364.56
2022-08-03T07:40:31.663Z,101365.50
2022-08-03T07:42:58.987Z,101379.88
2022-08-03T07:45:26.685Z,101377.97
2022-08-03T07:47:54.233Z,101380.75
2022-08-03T07:50:21.952Z,101376.97
2022-08-03T07:52:49.585Z,101378.81
2022-08-03T07:55:17.615Z,101379.66
2022-08-03T07:57:44.315Z,101374.47
2022-08-03T08:00:17.271Z,101394.34
2022-08-03T08:02:44.728Z,101386.94
2022-08-03T08:05:12.591Z,101390.34
2022-08-03T08:07:40.143Z,101388.59
2022-08-03T08:10:08.125Z,101388.25
2022-08-03T08:12:34.712Z,101390.28
2022-08-03T08:15:01.500Z,101400.97
2022-08-03T08:17:28.057Z,101396.69
2022-08-03T08:19:54.627Z,101398.38
2022-08-03T08:22:24.774Z,101397.44
2022-08-03T08:24:56.945Z,101404.50
2022-08-03T08:27:23.704Z,101397.22
2022-08-03T08:29:54.251Z,101390.81
2022-08-03T08:32:21.970Z,101394.53
2022-08-03T08:34:48.587Z,101397.31
2022-08-03T08:37:15.228Z,101392.75
2022-08-03T08:39:41.794Z,101390.97
2022-08-03T08:42:10.212Z,101399.00
2022-08-03T08:44:36.796Z,101388.16
2022-08-03T08:47:03.985Z,101396.09
2022-08-03T08:49:32.905Z,101391.22
2022-08-03T08:52:00.718Z,101400.31
2022-08-03T08:54:28.172Z,101395.13
2022-08-03T08:56:57.512Z,101401.09
2022-08-03T08:59:24.979Z,101399.53
2022-08-03T09:01:51.531Z,101391.22
2022-08-03T09:04:18.217Z,101401.09
2022-08-03T09:06:58.647Z,101401.66
2022-08-03T09:10:12.291Z,101396.06
2022-08-03T09:12:40.572Z,101400.63
2022-08-03T09:15:26.372Z,101395.78
2022-08-03T09:17:55.173Z,101397.75
2022-08-03T09:20:23.673Z,101406.59
2022-08-03T09:23:09.685Z,101404.72
2022-08-03T09:25:48.819Z,101402.97
2022-08-03T09:28:56.494Z,101397.25
2022-08-03T09:31:03.616Z,101400.81
2022-08-03T09:33:35.882Z,101395.28
2022-08-03T09:36:02.846Z,101393.41
2022-08-03T09:38:29.437Z,101395.81
2022-08-03T09:41:00.299Z,101402.13
2022-08-03T09:43:28.242Z,101396.59
2022-08-03T09:46:04.045Z,101401.16
2022-08-03T09:48:31.808Z,101399.19
2022-08-03T09:51:13.086Z,101398.22
2022-08-03T09:53:59.588Z,101396.22
2022-08-03T09:56:47.503Z,101392.59
2022-08-03T09:59:23.700Z,101396.84
2022-08-03T10:01:50.336Z,101404.94
2022-08-03T10:04:17.164Z,101405.81
2022-08-03T10:07:02.553Z,101401.16
2022-08-03T10:09:29.244Z,101408.22
2022-08-03T10:11:56.016Z,101414.38
2022-08-03T10:14:23.469Z,101415.28
2022-08-03T10:16:50.291Z,101408.78
2022-08-03T10:19:17.445Z,101409.72
2022-08-03T10:21:50.875Z,101416.72
2022-08-03T10:24:21.241Z,101409.47
2022-08-03T10:26:49.498Z,101404.19
2022-08-03T10:29:24.803Z,101407.25
2022-08-03T10:31:57.646Z,101404.66
2022-08-03T10:34:27.248Z,101407.56
2022-08-03T10:36:57.529Z,101408.88
2022-08-03T10:39:28.699Z,101400.06
2022-08-03T10:41:57.629Z,101397.78
2022-08-03T10:44:25.180Z,101398.19
2022-08-03T10:46:52.021Z,101403.13
2022-08-03T10:49:33.885Z,101414.06
2022-08-03T10:52:02.590Z,101406.41
2022-08-03T10:55:07.423Z,101415.72
2022-08-03T10:57:58.446Z,101412.28
2022-08-03T11:00:26.843Z,101411.84
2022-08-03T11:03:08.664Z,101413.22
2022-08-03T11:05:40.428Z,101407.84
2022-08-03T11:08:20.289Z,101416.69
2022-08-03T11:10:47.833Z,101406.97
2022-08-03T11:13:19.337Z,101403.94
2022-08-03T11:15:48.582Z,101409.13
2022-08-03T11:18:15.710Z,101414.66
2022-08-03T11:20:49.072Z,101403.69
2022-08-03T11:23:17.034Z,101405.31
2022-08-03T11:26:09.260Z,101408.69
2022-08-03T11:28:35.951Z,101413.53
2022-08-03T11:31:48.563Z,101406.69
2022-08-03T11:34:13.448Z,101423.06
2022-08-03T11:37:17.669Z,101406.56
2022-08-03T11:39:46.655Z,101408.69
2022-08-03T11:42:25.620Z,101410.91
2022-08-03T11:44:53.875Z,101412.28
2022-08-03T11:47:21.293Z,101410.88
2022-08-03T11:49:49.059Z,101409.97
2022-08-03T11:52:16.860Z,101417.91
2022-08-03T11:54:43.812Z,101413.50
2022-08-03T11:57:10.391Z,101426.88
2022-08-03T11:59:38.825Z,101418.78
2022-08-03T12:02:12.465Z,101429.53
2022-08-03T12:04:58.274Z,101424.56
2022-08-03T12:08:04.123Z,101427.75
2022-08-03T12:10:15.022Z,101429.25
2022-08-03T12:12:46.417Z,101435.91
2022-08-03T12:15:13.191Z,101430.53
2022-08-03T12:17:41.360Z,101433.06
2022-08-03T12:20:09.974Z,101428.94
2022-08-03T12:22:38.825Z,101429.72
2022-08-03T12:25:07.067Z,101429.72
2022-08-03T12:27:33.785Z,101435.31
2022-08-03T12:30:01.817Z,101425.19
2022-08-03T12:32:29.264Z,101426.94
2022-08-03T12:35:00.862Z,101434.56
2022-08-03T12:37:28.459Z,101427.81
2022-08-03T12:40:01.378Z,101428.66
2022-08-03T12:42:36.373Z,101431.97
2022-08-03T12:45:32.075Z,101431.00
2022-08-03T12:48:00.268Z,101435.63
2022-08-03T12:50:32.401Z,101437.25
2022-08-03T12:53:00.234Z,101435.50
2022-08-03T12:55:57.828Z,101431.69
2022-08-03T12:58:35.321Z,101446.19
2022-08-03T13:01:05.177Z,101434.94
2022-08-03T13:03:45.987Z,101427.88
2022-08-03T13:06:22.390Z,101435.34
2022-08-03T13:08:49.568Z,101433.31
2022-08-03T13:11:20.843Z,101433.44
2022-08-03T13:13:47.550Z,101433.97
2022-08-03T13:16:19.008Z,101443.16
2022-08-03T13:18:48.826Z,101443.09
2022-08-03T13:21:16.385Z,101436.44
2022-08-03T13:23:43.415Z,101440.38
2022-08-03T13:26:10.695Z,101437.66
2022-08-03T13:28:37.535Z,101436.69
2022-08-03T13:31:04.223Z,101429.13
2022-08-03T13:33:33.816Z,101434.38
2022-08-03T13:36:00.422Z,101428.16
2022-08-03T13:38:27.386Z,101430.72
2022-08-03T13:40:55.142Z,101423.09
2022-08-03T13:43:22.613Z,101422.38
2022-08-03T13:45:53.517Z,101428.53
2022-08-03T13:48:36.899Z,101424.88
2022-08-03T13:51:11.549Z,101422.94
2022-08-03T13:53:48.343Z,101422.69
2022-08-03T13:56:14.911Z,101431.91
2022-08-03T13:58:41.505Z,101424.88
2022-08-03T14:01:08.301Z,101429.34
2022-08-03T14:03:34.913Z,101428.47
2022-08-03T14:06:01.521Z,101422.81
2022-08-03T14:08:28.128Z,101419.16
2022-08-03T14:10:55.253Z,101430.88
2022-08-03T14:13:22.569Z,101435.59
2022-08-03T14:15:51.359Z,101421.25
2022-08-03T14:18:27.928Z,101425.59
2022-08-03T14:21:00.664Z,101423.13
2022-08-03T14:23:31.518Z,101423.91
2022-08-03T14:25:58.117Z,101420.03
2022-08-03T14:28:24.808Z,101423.09
2022-08-03T14:30:55.872Z,101415.97
2022-08-03T14:33:23.194Z,101421.19
2022-08-03T14:35:50.118Z,101422.97
2022-08-03T14:38:17.824Z,101424.75
2022-08-03T14:40:44.921Z,101424.28
2022-08-03T14:43:11.484Z,101431.50
2022-08-03T14:45:38.877Z,101425.25
2022-08-03T14:50:34.712Z,101428.66
2022-08-03T14:50:56.602Z,101415.78
2022-08-03T14:53:23.442Z,101422.25
2022-08-03T14:55:51.917Z,101418.09
2022-08-03T14:58:23.167Z,101417.53
2022-08-03T15:00:51.311Z,101419.00
2022-08-03T15:03:23.878Z,101425.13
2022-08-03T15:05:57.229Z,101425.44
2022-08-03T15:08:25.563Z,101418.28
2022-08-03T15:10:53.196Z,101414.44
2022-08-03T15:13:20.276Z,101415.88
2022-08-03T15:15:47.920Z,101412.53
2022-08-03T15:18:14.733Z,101415.06
2022-08-03T15:20:46.325Z,101405.88
2022-08-03T15:23:14.847Z,101408.75
2022-08-03T15:26:32.242Z,101410.44
2022-08-03T15:28:29.087Z,101403.38
2022-08-03T15:30:55.665Z,101408.91
2022-08-03T15:33:22.236Z,101401.63
2022-08-03T15:35:49.825Z,101401.47
2022-08-03T15:38:16.571Z,101412.34
2022-08-03T15:40:43.277Z,101403.38
2022-08-03T15:43:09.932Z,101404.28
2022-08-03T15:45:37.199Z,101405.94
2022-08-03T15:48:06.609Z,101406.75
2022-08-03T15:50:33.324Z,101408.66
2022-08-03T15:52:59.889Z,101403.22
2022-08-03T15:55:27.202Z,101400.81
2022-08-03T15:59:09.458Z,101400.50
2022-08-03T16:00:41.303Z,101405.13
2022-08-03T16:03:07.860Z,101397.78
2022-08-03T16:05:34.603Z,101394.19
2022-08-03T16:08:04.369Z,101397.66
2022-08-03T16:10:32.511Z,101399.38
2022-08-03T16:13:00.150Z,101402.91
2022-08-03T16:15:27.117Z,101392.19
2022-08-03T16:17:53.752Z,101402.81
2022-08-03T16:20:30.993Z,101408.53
2022-08-03T16:23:10.324Z,101411.16
2022-08-03T16:25:39.208Z,101416.69
2022-08-03T16:28:14.002Z,101417.47
2022-08-03T16:30:43.496Z,101416.53
2022-08-03T16:33:11.192Z,101415.72
2022-08-03T16:35:38.038Z,101421.16
2022-08-03T16:38:09.642Z,101420.06
2022-08-03T16:40:37.189Z,101420.19
2022-08-03T16:43:18.422Z,101419.88
2022-08-03T16:45:47.066Z,101417.84
2022-08-03T16:48:14.524Z,101426.06
2022-08-03T16:50:41.278Z,101419.66
2022-08-03T16:53:09.618Z,101425.81
2022-08-03T16:55:51.818Z,101426.78
2022-08-03T16:58:34.686Z,101433.03
2022-08-03T17:01:21.754Z,101426.47
2022-08-03T17:04:01.646Z,101418.28
2022-08-03T17:06:34.474Z,101421.84
2022-08-03T17:09:03.229Z,101427.28
2022-08-03T17:11:32.105Z,101426.47
2022-08-03T17:13:59.865Z,101420.88
2022-08-03T17:16:26.498Z,101435.41
2022-08-03T17:18:57.365Z,101426.69
2022-08-03T17:21:29.360Z,101427.47
2022-08-03T17:24:22.109Z,101430.06
2022-08-03T17:26:53.642Z,101439.34
2022-08-03T17:29:23.143Z,101425.22
2022-08-03T17:31:52.936Z,101430.53
2022-08-03T17:34:20.139Z,101423.94
2022-08-03T17:37:03.673Z,101428.94
2022-08-03T17:39:57.052Z,101423.94
2022-08-03T17:42:28.998Z,101425.09
2022-08-03T17:44:57.435Z,101423.41
2022-08-03T17:47:24.017Z,101423.94
2022-08-03T17:50:23.326Z,101430.78
2022-08-03T17:53:06.761Z,101430.13
2022-08-03T17:55:55.980Z,101431.75
2022-08-03T17:58:55.117Z,101431.81
2022-08-03T18:01:58.335Z,101430.84
2022-08-03T18:04:33.931Z,101430.22
2022-08-03T18:07:11.858Z,101432.13
2022-08-03T18:10:05.966Z,101424.19
2022-08-03T18:12:28.985Z,101432.63
2022-08-03T18:15:08.660Z,101429.94
2022-08-03T18:17:55.987Z,101430.84
2022-08-03T18:20:34.603Z,101418.16
2022-08-03T18:23:09.342Z,101416.28
2022-08-03T18:25:45.816Z,101415.66
2022-08-03T18:28:18.698Z,101427.44
2022-08-03T18:30:53.350Z,101427.75
2022-08-03T18:34:20.337Z,101424.22
2022-08-03T18:36:10.458Z,101426.88
2022-08-03T18:38:40.762Z,101429.19
2022-08-03T18:41:15.721Z,101423.59
2022-08-03T18:44:07.181Z,101425.50
2022-08-03T18:46:35.866Z,101411.13
2022-08-03T18:49:19.636Z,101416.28
2022-08-03T18:51:47.166Z,101407.94
2022-08-03T18:54:45.898Z,101419.06
2022-08-03T18:57:30.234Z,101410.66
2022-08-03T19:03:05.210Z,101413.16
2022-08-03T19:06:02.211Z,101416.56
2022-08-03T19:08:33.732Z,101414.19
2022-08-03T19:11:06.083Z,101410.66
2022-08-03T19:13:41.464Z,101411.63
2022-08-03T19:16:17.451Z,101415.25
2022-08-03T19:18:49.147Z,101422.59
2022-08-03T19:21:16.161Z,101416.56
2022-08-03T19:23:45.943Z,101415.75
2022-08-03T19:26:30.440Z,101412.94
2022-08-03T19:28:58.588Z,101413.16
2022-08-03T19:31:25.676Z,101422.00
2022-08-03T19:33:58.800Z,101412.94
2022-08-03T19:36:28.294Z,101410.25
2022-08-03T19:38:56.378Z,101417.66
2022-08-03T19:41:25.228Z,101412.06
2022-08-03T19:44:04.425Z,101414.94
2022-08-03T19:46:31.784Z,101419.41
2022-08-03T19:49:15.012Z,101413.66
2022-08-03T19:52:01.713Z,101414.06
2022-08-03T19:54:36.873Z,101416.44
2022-08-03T19:57:19.848Z,101415.72
2022-08-03T19:59:50.073Z,101405.72
2022-08-03T20:02:25.630Z,101415.72
2022-08-03T20:04:57.976Z,101419.69
2022-08-03T20:07:28.483Z,101413.81
2022-08-03T20:09:56.127Z,101412.22
2022-08-03T20:12:27.348Z,101412.03
2022-08-03T20:14:56.478Z,101408.81
2022-08-03T20:17:23.092Z,101417.66
2022-08-03T20:20:09.751Z,101410.88
2022-08-03T20:22:37.580Z,101404.50
2022-08-03T20:25:11.043Z,101400.72
2022-08-03T20:28:07.047Z,101403.53
2022-08-03T20:30:33.115Z,101405.44
2022-08-03T20:32:59.810Z,101407.22
2022-08-03T20:35:27.007Z,101410.75
2022-08-03T20:37:54.928Z,101414.56
2022-08-03T20:40:22.401Z,101412.53
2022-08-03T20:42:55.231Z,101412.53
2022-08-03T20:45:59.098Z,101412.81
2022-08-03T20:48:09.763Z,101415.69
2022-08-03T20:50:39.574Z,101416.81
2022-08-03T20:53:09.210Z,101420.19
2022-08-03T20:55:47.800Z,101416.56
2022-08-03T20:58:25.740Z,101415.03
2022-08-03T21:00:53.720Z,101411.50
2022-08-03T21:03:20.287Z,101405.09
2022-08-03T21:05:51.713Z,101406.06
2022-08-03T21:08:22.427Z,101409.91
2022-08-03T21:10:50.268Z,101413.41
2022-08-03T21:13:00.964Z,101413.16
2022-08-03T21:13:30.322Z,101398.03
2022-08-03T21:16:01.200Z,101400.75
2022-08-03T21:18:45.705Z,101397.47
2022-08-03T21:21:16.865Z,101390.19
2022-08-03T21:23:49.185Z,101382.16
2022-08-03T21:26:18.420Z,101381.25
2022-08-03T21:28:46.816Z,101385.19
2022-08-03T21:31:14.058Z,101368.69
2022-08-03T21:33:40.973Z,101367.91
2022-08-03T21:36:16.592Z,101369.66
2022-08-03T21:38:44.002Z,101372.53
2022-08-03T21:41:14.203Z,101366.38
2022-08-03T21:43:40.759Z,101370.22
2022-08-03T21:46:08.086Z,101367.41
2022-08-03T21:48:39.659Z,101364.81
2022-08-03T21:51:10.027Z,101352.19
2022-08-03T21:54:02.790Z,101356.66
2022-08-03T21:56:26.257Z,101358.44
2022-08-03T21:58:55.723Z,101360.50
2022-08-03T22:01:25.168Z,101355.38
2022-08-03T22:03:56.008Z,101359.91
2022-08-03T22:06:27.648Z,101360.50
2022-08-03T22:08:54.663Z,101355.50
2022-08-03T22:11:21.301Z,101355.16
2022-08-03T22:13:48.299Z,101360.22
2022-08-03T22:16:15.383Z,101346.81
2022-08-03T22:18:43.623Z,101344.94
2022-08-03T22:21:12.776Z,101345.22
2022-08-03T22:23:43.019Z,101340.59
2022-08-03T22:26:14.171Z,101348.03
2022-08-03T22:28:42.031Z,101342.28
2022-08-03T22:31:57.207Z,101337.75
2022-08-03T22:33:55.377Z,101331.69
2022-08-03T22:36:24.084Z,101338.75
2022-08-03T22:38:53.660Z,101334.94
2022-08-03T22:41:20.861Z,101335.09
2022-08-03T22:43:47.677Z,101331.69
2022-08-03T22:46:18.705Z,101327.88
2022-08-03T22:48:46.870Z,101332.63
2022-08-03T22:51:15.476Z,101335.34
2022-08-03T22:53:42.156Z,101331.69
2022-08-03T22:56:09.010Z,101326.38
2022-08-03T22:58:35.656Z,101328.59
2022-08-03T23:01:05.988Z,101334.03
2022-08-03T23:03:58.994Z,101326.66
2022-08-03T23:06:21.467Z,101325.13
2022-08-03T23:08:50.004Z,101325.19
2022-08-03T23:11:17.720Z,101326.16
2022-08-03T23:13:46.922Z,101340.75
2022-08-03T23:16:14.118Z,101330.78
2022-08-03T23:18:42.665Z,101334.44
2022-08-03T23:21:11.817Z,101323.72
2022-08-03T23:23:43.955Z,101329.13
2022-08-03T23:26:12.147Z,101332.84
2022-08-03T23:28:38.765Z,101330.03
2022-08-03T23:31:07.940Z,101325.47
2022-08-03T23:33:38.375Z,101331.81
2022-08-03T23:36:27.786Z,101321.81
2022-08-03T23:38:53.647Z,101331.06
2022-08-03T23:41:20.358Z,101325.75
2022-08-03T23:43:53.658Z,101317.50
2022-08-03T23:46:22.274Z,101322.25
2022-08-03T23:48:48.843Z,101322.38
2022-08-03T23:51:26.302Z,101312.63
2022-08-03T23:54:08.374Z,101317.09
2022-08-03T23:56:48.784Z,101323.25
2022-08-03T23:59:18.215Z,101312.69
